Nelson, Argentina
Current Conditions -  °F | °C
As of 5:00 AM on Thursday 23 Oct 2014 (Local Time) from SAAR Reporting Station
Clear Clear  
Wind Chill: 64°   Ceiling: Unl
Heat Index: 64°   Visibility: 6mi
Dew Point: 61°   Wind: 3mph
Humidity: 88%   Direction: 70°ENE
Pressure: 29.94"   Gusts: NA
Location:  31.27°S, 60.75°W
Report Text: SAAR 230800Z 07003KT CAVOK 18/16 Q1014
Loading
Personal Weather Stations






























Interactive Weather Map
Tropical Storm Tracking
New forecast layout! Learn more

10-Day Weather Forecast

Advertisements
Track Severe Weather on mobile